Time;durP1;ratioP1;P1;durP2;ratioP2;P2;SDS_P1;SDS_P2;PMS_P1;PMS_P2;Temp;Humidity;BMP_temperature;BMP_pressure;BME280_temperature;BME280_humidity;BME280_pressure;Samples;Min_cycle;Max_cycle;Signal;HPM_P1;HPM_P2
2023/09/06 00:00:52;;;;;;;5.43;4.17;;;13.20;99.90;;;;;;2057676;28;20607;-82
2023/09/06 00:01:53;;;;;;;3.90;3.50;;;13.10;99.90;;;;;;2065094;28;20229;-82
2023/09/06 00:02:56;;;;;;;7.00;4.27;;;13.10;99.90;;;;;;2062393;28;20312;-82
2023/09/06 00:03:57;;;;;;;6.55;3.75;;;13.00;99.90;;;;;;2061671;28;20696;-82
2023/09/06 00:04:57;;;;;;;4.13;3.83;;;13.00;99.90;;;;;;2074150;28;20225;-82
2023/09/06 00:05:58;;;;;;;4.23;3.83;;;13.10;99.90;;;;;;2069956;28;20281;-81
2023/09/06 00:07:00;;;;;;;4.25;3.78;;;13.00;99.90;;;;;;2063237;28;20273;-82
2023/09/06 00:08:06;;;;;;;4.57;4.07;;;12.90;99.90;;;;;;2081467;28;20252;-81
2023/09/06 00:09:10;;;;;;;5.10;4.18;;;12.80;99.90;;;;;;2065054;28;20222;-81
2023/09/06 00:10:10;;;;;;;6.22;4.10;;;12.90;99.90;;;;;;2059260;28;20184;-82
2023/09/06 00:11:11;;;;;;;5.73;4.40;;;12.90;99.90;;;;;;2060413;28;20202;-81
2023/09/06 00:12:12;;;;;;;5.53;4.70;;;12.90;99.90;;;;;;2061059;28;20214;-82
2023/09/06 00:13:13;;;;;;;4.63;4.23;;;12.80;99.90;;;;;;2055788;28;20203;-84
2023/09/06 00:14:15;;;;;;;5.47;3.83;;;12.90;99.90;;;;;;2057707;28;20219;-82
2023/09/06 00:15:18;;;;;;;4.30;3.90;;;12.90;99.90;;;;;;2056043;28;20548;-82
2023/09/06 00:16:19;;;;;;;5.18;4.30;;;12.90;99.90;;;;;;2053446;28;20187;-82
2023/09/06 00:17:20;;;;;;;6.47;4.40;;;12.80;99.90;;;;;;2066859;28;20190;-82
2023/09/06 00:18:22;;;;;;;6.30;4.40;;;12.90;99.90;;;;;;2074623;28;20216;-82
2023/09/06 00:19:24;;;;;;;4.22;3.83;;;12.80;99.90;;;;;;2070582;28;20230;-82
2023/09/06 00:20:25;;;;;;;5.70;4.07;;;12.70;99.90;;;;;;2066855;28;20226;-81
2023/09/06 00:21:26;;;;;;;5.93;4.20;;;12.80;99.90;;;;;;2055792;28;20226;-82
2023/09/06 00:22:27;;;;;;;5.28;4.00;;;12.70;99.90;;;;;;2055129;28;20772;-82
2023/09/06 00:23:28;;;;;;;4.70;4.30;;;12.60;99.90;;;;;;2074091;28;20264;-82
2023/09/06 00:24:31;;;;;;;5.03;4.20;;;12.60;99.90;;;;;;2062458;28;20257;-82
2023/09/06 00:25:33;;;;;;;5.35;4.63;;;12.50;99.90;;;;;;2050686;28;20224;-82
2023/09/06 00:26:33;;;;;;;5.90;4.70;;;12.50;99.90;;;;;;2050948;28;20220;-82
2023/09/06 00:27:34;;;;;;;4.93;4.47;;;12.50;99.90;;;;;;2054862;28;20219;-82
2023/09/06 00:28:34;;;;;;;5.77;5.00;;;12.40;99.90;;;;;;2054273;28;20215;-82
2023/09/06 00:29:35;;;;;;;5.23;4.60;;;12.40;99.90;;;;;;2054593;28;20223;-82
2023/09/06 00:30:36;;;;;;;5.57;4.87;;;12.50;99.90;;;;;;2065872;28;20226;-82
2023/09/06 00:31:37;;;;;;;7.07;4.77;;;12.40;99.90;;;;;;2074473;28;20233;-82
2023/09/06 00:32:37;;;;;;;5.80;4.80;;;12.50;99.90;;;;;;2072578;28;20300;-82
2023/09/06 00:33:38;;;;;;;5.17;4.67;;;12.50;99.90;;;;;;2055517;28;20227;-82
2023/09/06 00:34:39;;;;;;;5.40;4.70;;;12.50;99.90;;;;;;2058057;28;20241;-82
2023/09/06 00:35:39;;;;;;;6.00;5.33;;;12.50;99.90;;;;;;2066358;28;20234;-83
2023/09/06 00:36:40;;;;;;;6.50;5.40;;;12.50;99.90;;;;;;2066046;28;20214;-82
2023/09/06 00:37:41;;;;;;;6.30;4.60;;;12.50;99.90;;;;;;2050525;28;20226;-82
2023/09/06 00:38:41;;;;;;;6.10;5.00;;;12.50;99.90;;;;;;2058834;28;20322;-81
2023/09/06 00:39:42;;;;;;;5.00;4.50;;;12.50;99.90;;;;;;2066670;28;20250;-82
2023/09/06 00:40:51;;;;;;;6.07;4.63;;;12.50;99.90;;;;;;2057728;28;20312;-82
2023/09/06 00:41:52;;;;;;;5.47;4.53;;;12.50;99.90;;;;;;2060572;28;20351;-82
2023/09/06 00:42:59;;;;;;;5.70;5.10;;;12.50;99.90;;;;;;2073408;28;20233;-82
2023/09/06 00:44:00;;;;;;;5.57;5.07;;;12.40;99.90;;;;;;2064709;28;20711;-83
2023/09/06 00:45:00;;;;;;;5.43;4.83;;;12.30;99.90;;;;;;2054892;28;20239;-82
2023/09/06 00:46:07;;;;;;;6.23;5.20;;;12.30;99.90;;;;;;2074029;28;20222;-82
2023/09/06 00:47:08;;;;;;;6.18;5.22;;;12.30;99.90;;;;;;2057254;28;20237;-82
2023/09/06 00:48:11;;;;;;;5.27;4.77;;;12.40;99.90;;;;;;2051160;28;20184;-82
2023/09/06 00:49:12;;;;;;;5.57;4.97;;;12.40;99.90;;;;;;2058633;28;20187;-82
2023/09/06 00:50:13;;;;;;;5.77;4.93;;;12.40;99.90;;;;;;2074297;28;20213;-82
2023/09/06 00:51:13;;;;;;;5.65;4.95;;;12.30;99.90;;;;;;2073788;28;20189;-82
2023/09/06 00:52:16;;;;;;;5.67;4.43;;;12.40;99.90;;;;;;2057809;28;20183;-82
2023/09/06 00:53:18;;;;;;;6.03;4.80;;;12.50;99.90;;;;;;2061486;28;20903;-82
2023/09/06 00:54:19;;;;;;;5.97;4.97;;;12.40;99.90;;;;;;2068470;28;20182;-83
2023/09/06 00:55:20;;;;;;;5.10;4.60;;;12.50;99.90;;;;;;2071562;28;20265;-82
2023/09/06 00:56:22;;;;;;;5.25;4.75;;;12.30;99.90;;;;;;2081182;28;20238;-82
2023/09/06 00:57:23;;;;;;;5.93;5.07;;;12.30;99.90;;;;;;2066367;28;20261;-82
2023/09/06 00:58:26;;;;;;;6.57;5.10;;;12.30;99.90;;;;;;2062730;28;20268;-82
2023/09/06 00:59:28;;;;;;;5.38;4.88;;;12.40;99.90;;;;;;2072639;28;21028;-81
2023/09/06 01:00:30;;;;;;;5.88;5.32;;;12.30;99.90;;;;;;2063914;28;20225;-82
2023/09/06 01:01:33;;;;;;;5.75;4.68;;;12.30;99.90;;;;;;2057677;28;20261;-83
2023/09/06 01:02:34;;;;;;;5.57;4.82;;;12.20;99.90;;;;;;2059315;28;20222;-82
2023/09/06 01:03:35;;;;;;;5.50;5.00;;;12.40;99.90;;;;;;2064579;28;20301;-82
2023/09/06 01:04:35;;;;;;;5.57;5.07;;;12.30;99.90;;;;;;2071365;28;20225;-82
2023/09/06 01:05:46;;;;;;;5.77;4.97;;;12.10;99.90;;;;;;2072363;28;20355;-82
2023/09/06 01:06:55;;;;;;;7.10;5.85;;;12.10;99.90;;;;;;2063971;28;20261;-82
2023/09/06 01:08:01;;;;;;;5.97;4.97;;;12.20;99.90;;;;;;2075069;28;20224;-82
2023/09/06 01:09:05;;;;;;;6.32;4.95;;;12.20;99.90;;;;;;2073036;28;20300;-82
2023/09/06 01:10:07;;;;;;;5.22;4.50;;;12.10;99.90;;;;;;2068752;28;20217;-82
2023/09/06 01:11:22;;;;;;;8.75;5.13;;;12.10;99.90;;;;;;2071609;28;20288;-81
2023/09/06 01:12:23;;;;;;;6.95;5.07;;;12.10;99.90;;;;;;2063764;28;20246;-82
2023/09/06 01:13:23;;;;;;;5.83;5.00;;;12.10;99.90;;;;;;2068167;28;20228;-82
2023/09/06 01:14:24;;;;;;;6.13;5.50;;;12.20;99.90;;;;;;2072979;28;20229;-81
2023/09/06 01:15:25;;;;;;;12.57;5.50;;;12.10;99.90;;;;;;2057675;28;20329;-81
2023/09/06 01:16:30;;;;;;;6.47;5.07;;;12.10;99.90;;;;;;2054884;28;20286;-82
2023/09/06 01:17:36;;;;;;;5.60;5.03;;;12.00;99.90;;;;;;2059577;28;20710;-82
2023/09/06 01:18:37;;;;;;;5.63;4.95;;;12.00;99.90;;;;;;2062628;28;20222;-82
2023/09/06 01:19:44;;;;;;;5.97;5.37;;;12.00;99.90;;;;;;2053966;28;20755;-81
2023/09/06 01:21:02;;;;;;;5.85;5.25;;;12.00;99.90;;;;;;2050023;28;20310;-82
2023/09/06 01:22:18;;;;;;;5.88;5.32;;;12.00;99.90;;;;;;2061179;28;20215;-82
2023/09/06 01:23:37;;;;;;;6.45;5.50;;;12.00;99.90;;;;;;2069799;28;20181;-82
2023/09/06 01:24:38;;;;;;;6.32;5.10;;;11.90;99.90;;;;;;2059434;28;20220;-82
2023/09/06 01:25:40;;;;;;;5.80;5.20;;;11.90;99.90;;;;;;2061396;28;20509;-82
2023/09/06 01:26:41;;;;;;;6.18;5.10;;;11.90;99.90;;;;;;2071325;28;20271;-82
2023/09/06 01:27:43;;;;;;;6.63;5.45;;;11.90;99.90;;;;;;2062933;28;20251;-82
2023/09/06 01:28:44;;;;;;;6.55;5.13;;;11.90;99.90;;;;;;2057229;28;20297;-82
2023/09/06 01:29:45;;;;;;;6.33;5.40;;;11.90;99.90;;;;;;2049563;28;20223;-82
2023/09/06 01:30:46;;;;;;;6.40;5.80;;;12.00;99.90;;;;;;2064750;28;20488;-82
2023/09/06 01:31:47;;;;;;;6.03;5.43;;;11.90;99.90;;;;;;2062546;28;20258;-82
2023/09/06 01:32:47;;;;;;;6.13;5.20;;;12.00;99.90;;;;;;2056087;28;20278;-82
2023/09/06 01:33:48;;;;;;;5.50;4.90;;;12.00;99.90;;;;;;2065131;28;20218;-82
2023/09/06 01:34:50;;;;;;;5.87;5.07;;;12.00;99.90;;;;;;2056241;28;20562;-81
2023/09/06 01:35:51;;;;;;;7.03;5.10;;;12.00;99.90;;;;;;2063851;28;20236;-81
2023/09/06 01:36:52;;;;;;;6.10;5.35;;;12.00;99.90;;;;;;2078314;28;20286;-81
2023/09/06 01:37:53;;;;;;;5.90;5.30;;;11.90;99.90;;;;;;2060781;28;20280;-82
2023/09/06 01:38:54;;;;;;;5.77;5.20;;;11.90;99.90;;;;;;2052343;28;20652;-82
2023/09/06 01:39:54;;;;;;;7.33;5.37;;;11.80;99.90;;;;;;2071701;28;20225;-81
2023/09/06 01:40:55;;;;;;;6.50;5.77;;;11.90;99.90;;;;;;2069758;28;20229;-81
2023/09/06 01:41:56;;;;;;;6.03;5.27;;;11.90;99.90;;;;;;2060693;28;20222;-81
2023/09/06 01:42:58;;;;;;;6.97;5.53;;;11.90;99.90;;;;;;2060861;28;20229;-81
2023/09/06 01:44:00;;;;;;;5.78;5.20;;;11.90;99.90;;;;;;2072442;28;20228;-81
2023/09/06 01:45:01;;;;;;;6.10;5.50;;;11.90;99.90;;;;;;2068126;28;21013;-81
2023/09/06 01:46:02;;;;;;;5.30;4.75;;;11.90;99.90;;;;;;2063933;28;20304;-81
2023/09/06 01:47:03;;;;;;;7.27;5.77;;;11.90;99.90;;;;;;2067722;28;20190;-81
2023/09/06 01:48:04;;;;;;;6.18;5.22;;;11.70;99.90;;;;;;2070077;28;20268;-81
2023/09/06 01:49:05;;;;;;;6.53;5.78;;;11.70;99.90;;;;;;2054910;28;20187;-81
2023/09/06 01:50:06;;;;;;;6.77;5.53;;;11.80;99.90;;;;;;2056139;28;20194;-82
2023/09/06 01:51:08;;;;;;;5.47;4.88;;;11.70;99.90;;;;;;2063839;28;20200;-81
2023/09/06 01:52:10;;;;;;;8.30;6.00;;;11.70;99.90;;;;;;2062723;28;20671;-82
2023/09/06 01:53:13;;;;;;;7.00;6.15;;;11.70;99.90;;;;;;2065532;28;20190;-82
2023/09/06 01:54:14;;;;;;;8.05;6.53;;;11.70;99.90;;;;;;2056666;28;20798;-82
2023/09/06 01:55:14;;;;;;;6.80;5.73;;;11.60;99.90;;;;;;2061213;28;20198;-81
2023/09/06 01:56:15;;;;;;;7.03;5.40;;;11.70;99.90;;;;;;2068650;28;20663;-82
2023/09/06 01:57:16;;;;;;;8.03;6.43;;;11.60;99.90;;;;;;2058070;28;20246;-81
2023/09/06 01:58:16;;;;;;;6.00;5.30;;;11.60;99.90;;;;;;2063382;28;20218;-82
2023/09/06 01:59:17;;;;;;;7.17;5.77;;;11.60;99.90;;;;;;2072707;28;20209;-82
2023/09/06 02:00:27;;;;;;;7.80;6.63;;;11.60;99.90;;;;;;2070493;28;20673;-82
2023/09/06 02:01:28;;;;;;;6.45;5.72;;;11.60;99.90;;;;;;2062718;28;20233;-81
2023/09/06 02:02:29;;;;;;;5.93;5.10;;;11.50;99.90;;;;;;2054215;28;20234;-82
2023/09/06 02:03:29;;;;;;;6.60;5.70;;;11.50;99.90;;;;;;2045259;29;20220;-82
2023/09/06 02:04:30;;;;;;;6.03;5.43;;;11.50;99.90;;;;;;2053385;28;20242;-82
2023/09/06 02:05:31;;;;;;;8.73;6.00;;;11.50;99.90;;;;;;2071503;28;20239;-82
2023/09/06 02:06:32;;;;;;;6.53;5.60;;;11.50;99.90;;;;;;2062753;28;20241;-82
2023/09/06 02:07:32;;;;;;;7.13;5.50;;;11.60;99.90;;;;;;2046071;28;20227;-82
2023/09/06 02:08:35;;;;;;;6.43;5.27;;;11.50;99.90;;;;;;2048803;28;20219;-82
2023/09/06 02:09:35;;;;;;;7.70;5.72;;;11.50;99.90;;;;;;2056839;28;20646;-82
2023/09/06 02:10:36;;;;;;;10.33;6.37;;;11.60;99.90;;;;;;2062040;28;20233;-82
2023/09/06 02:11:37;;;;;;;6.57;5.67;;;11.60;99.90;;;;;;2064504;28;20232;-82
2023/09/06 02:12:38;;;;;;;5.83;5.23;;;11.60;99.90;;;;;;2065148;28;20228;-82
2023/09/06 02:13:39;;;;;;;5.88;5.28;;;11.50;99.90;;;;;;2061990;28;20597;-82
2023/09/06 02:14:40;;;;;;;6.43;5.50;;;11.50;99.90;;;;;;2063439;28;20237;-82
2023/09/06 02:15:41;;;;;;;6.03;5.43;;;11.50;99.90;;;;;;2061351;28;20646;-82
2023/09/06 02:16:42;;;;;;;6.53;5.82;;;11.50;99.90;;;;;;2055345;28;20230;-82
2023/09/06 02:17:44;;;;;;;6.77;5.47;;;11.50;99.90;;;;;;2063525;28;20229;-82
2023/09/06 02:18:45;;;;;;;5.80;5.20;;;11.50;99.90;;;;;;2063826;28;20241;-82
2023/09/06 02:19:45;;;;;;;7.60;5.50;;;11.40;99.90;;;;;;2056579;28;20222;-81
2023/09/06 02:20:49;;;;;;;7.30;5.93;;;11.50;99.90;;;;;;2059973;28;20241;-83
2023/09/06 02:21:49;;;;;;;6.60;5.90;;;11.50;99.90;;;;;;2056369;28;20230;-82
2023/09/06 02:22:56;;;;;;;7.33;5.87;;;11.50;99.90;;;;;;2056309;28;20246;-82
2023/09/06 02:23:57;;;;;;;6.80;6.05;;;11.50;99.90;;;;;;2055382;28;20269;-82
2023/09/06 02:24:59;;;;;;;7.47;6.03;;;11.50;99.90;;;;;;2054806;28;20226;-83
2023/09/06 02:25:59;;;;;;;8.30;5.45;;;11.50;99.90;;;;;;2060620;28;20777;-82
2023/09/06 02:27:00;;;;;;;5.67;5.10;;;11.50;99.90;;;;;;2061591;28;20222;-82
2023/09/06 02:28:07;;;;;;;6.07;5.47;;;11.40;99.90;;;;;;2052208;28;20223;-83
2023/09/06 02:29:08;;;;;;;6.32;5.72;;;11.40;99.90;;;;;;2047679;28;20230;-82
2023/09/06 02:30:09;;;;;;;5.87;5.27;;;11.40;99.90;;;;;;2054225;28;20285;-82
2023/09/06 02:31:09;;;;;;;7.40;5.68;;;11.30;99.90;;;;;;2062142;28;20194;-82
2023/09/06 02:32:10;;;;;;;6.53;5.83;;;11.40;99.90;;;;;;2061906;28;20186;-83
2023/09/06 02:33:14;;;;;;;8.57;6.00;;;11.40;99.90;;;;;;2052707;28;20190;-83
2023/09/06 02:34:15;;;;;;;6.25;5.60;;;11.40;99.90;;;;;;2060517;28;20756;-84
2023/09/06 02:35:16;;;;;;;6.47;5.63;;;11.40;99.90;;;;;;2067425;28;20230;-82
2023/09/06 02:36:17;;;;;;;6.82;6.13;;;11.30;99.90;;;;;;2064329;28;20659;-82
2023/09/06 02:37:17;;;;;;;7.10;5.33;;;11.30;99.90;;;;;;2054581;28;20217;-83
2023/09/06 02:38:18;;;;;;;6.10;5.50;;;11.30;99.90;;;;;;2053203;28;20200;-83
2023/09/06 02:39:19;;;;;;;6.33;5.43;;;11.30;99.90;;;;;;2059916;28;20194;-81
2023/09/06 02:40:20;;;;;;;6.20;5.43;;;11.30;99.90;;;;;;2064565;28;20213;-83
2023/09/06 02:41:21;;;;;;;6.45;5.40;;;11.40;99.90;;;;;;2072371;28;20454;-83
2023/09/06 02:42:22;;;;;;;5.43;4.93;;;11.30;99.90;;;;;;2055380;28;20245;-81
2023/09/06 02:43:22;;;;;;;6.73;5.60;;;11.30;99.90;;;;;;2054346;28;20249;-83
2023/09/06 02:44:23;;;;;;;6.30;5.13;;;11.30;99.90;;;;;;2071370;28;20236;-82
2023/09/06 02:45:36;;;;;;;6.10;5.50;;;11.30;99.90;;;;;;2066982;28;20252;-82
2023/09/06 02:46:38;;;;;;;6.68;5.28;;;11.20;99.90;;;;;;2066235;28;20281;-83
2023/09/06 02:47:50;;;;;;;6.68;5.72;;;11.30;99.90;;;;;;2069275;28;20249;-82
2023/09/06 02:48:51;;;;;;;5.95;5.35;;;11.20;99.90;;;;;;2071604;28;20260;-82
2023/09/06 02:49:55;;;;;;;5.77;5.17;;;11.10;99.90;;;;;;2054674;28;20234;-82
2023/09/06 02:50:59;;;;;;;7.25;5.70;;;11.20;99.90;;;;;;2053239;28;20218;-82
2023/09/06 02:52:01;;;;;;;6.90;6.20;;;11.10;99.90;;;;;;2060516;28;20227;-82
2023/09/06 02:53:03;;;;;;;7.82;6.00;;;11.10;99.90;;;;;;2061323;28;20291;-82
2023/09/06 02:54:04;;;;;;;6.95;6.25;;;11.10;99.90;;;;;;2062668;28;20254;-83
2023/09/06 02:55:10;;;;;;;8.03;6.10;;;11.00;99.90;;;;;;2072334;28;20224;-82
2023/09/06 02:56:13;;;;;;;6.90;6.20;;;11.00;99.90;;;;;;2066462;28;20255;-82
2023/09/06 02:57:18;;;;;;;6.63;5.65;;;11.00;99.90;;;;;;2065220;28;20183;-83
2023/09/06 02:58:25;;;;;;;8.48;6.07;;;11.00;99.90;;;;;;2074028;28;20186;-82
2023/09/06 02:59:28;;;;;;;6.38;5.78;;;10.90;99.90;;;;;;2065956;28;20292;-82
2023/09/06 03:00:29;;;;;;;7.55;5.40;;;10.90;99.90;;;;;;2065190;28;20280;-83
2023/09/06 03:01:30;;;;;;;7.07;5.72;;;10.90;99.90;;;;;;2071153;28;20220;-82
2023/09/06 03:02:33;;;;;;;6.57;5.97;;;10.90;99.90;;;;;;2071326;28;20305;-82
2023/09/06 03:03:34;;;;;;;6.88;6.18;;;10.90;99.90;;;;;;2054872;28;20627;-82
2023/09/06 03:04:37;;;;;;;7.57;6.17;;;11.00;99.90;;;;;;2046030;28;20238;-83
2023/09/06 03:05:41;;;;;;;7.28;6.03;;;10.90;99.90;;;;;;2055586;28;20226;-82
2023/09/06 03:06:43;;;;;;;6.60;5.95;;;11.00;99.90;;;;;;2060633;28;20222;-82
2023/09/06 03:07:50;;;;;;;6.28;5.65;;;11.00;99.90;;;;;;2060443;28;20737;-82
2023/09/06 03:08:51;;;;;;;8.73;6.45;;;10.90;99.90;;;;;;2052124;28;20231;-82
2023/09/06 03:09:51;;;;;;;9.02;6.80;;;10.90;99.90;;;;;;2057454;28;20256;-82
2023/09/06 03:10:52;;;;;;;7.97;6.27;;;10.90;99.90;;;;;;2056957;28;20265;-82
2023/09/06 03:11:53;;;;;;;10.60;7.10;;;10.90;99.90;;;;;;2056031;28;20475;-82
2023/09/06 03:12:58;;;;;;;7.37;6.53;;;10.90;99.90;;;;;;2066402;28;20283;-83
2023/09/06 03:13:58;;;;;;;7.93;6.80;;;11.00;99.90;;;;;;2054770;28;20240;-83
2023/09/06 03:14:59;;;;;;;7.83;7.03;;;10.90;99.90;;;;;;2054286;28;20237;-82
2023/09/06 03:16:00;;;;;;;8.02;6.15;;;10.90;99.90;;;;;;2069981;28;20225;-82
2023/09/06 03:17:08;;;;;;;7.67;6.83;;;10.90;99.90;;;;;;2072471;28;20233;-82
2023/09/06 03:18:10;;;;;;;9.50;6.28;;;10.80;99.90;;;;;;2058722;28;20253;-82
2023/09/06 03:19:13;;;;;;;8.43;6.63;;;10.90;99.90;;;;;;2062903;28;20204;-82
2023/09/06 03:21:44;;;;;;;7.15;6.18;;;10.80;99.90;;;;;;2059120;28;20221;-82
2023/09/06 03:22:51;;;;;;;6.22;5.60;;;10.70;99.90;;;;;;2064882;28;20300;-82
2023/09/06 03:23:52;;;;;;;7.05;6.05;;;10.80;99.90;;;;;;2051012;28;20241;-81
2023/09/06 03:24:55;;;;;;;7.38;6.55;;;10.80;99.90;;;;;;2059715;28;20234;-82
2023/09/06 03:25:57;;;;;;;6.47;5.80;;;10.90;99.90;;;;;;2056603;28;20691;-83
2023/09/06 03:26:58;;;;;;;7.65;5.90;;;10.80;99.90;;;;;;2055609;28;20666;-82
2023/09/06 03:28:04;;;;;;;7.23;4.90;;;10.70;99.90;;;;;;2054606;28;20229;-83
2023/09/06 03:29:10;;;;;;;6.18;5.57;;;10.80;99.90;;;;;;2061426;28;20257;-81
2023/09/06 03:30:15;;;;;;;6.63;5.90;;;10.70;99.90;;;;;;2064265;28;20239;-82
2023/09/06 03:31:15;;;;;;;7.32;6.20;;;10.60;99.90;;;;;;2050280;28;20211;-82
2023/09/06 03:32:17;;;;;;;7.13;6.27;;;10.50;99.90;;;;;;2057556;28;20190;-82
2023/09/06 03:33:18;;;;;;;8.85;6.10;;;10.50;99.90;;;;;;2069803;28;20240;-83
2023/09/06 03:34:21;;;;;;;8.63;6.40;;;10.50;99.90;;;;;;2069383;28;20633;-82
2023/09/06 03:35:22;;;;;;;6.93;5.93;;;10.50;99.90;;;;;;2078537;28;20184;-83
2023/09/06 03:36:24;;;;;;;6.65;5.95;;;10.50;99.90;;;;;;2065297;28;20795;-82
2023/09/06 03:37:25;;;;;;;7.57;6.78;;;10.50;99.90;;;;;;2067975;28;20234;-82
2023/09/06 03:38:26;;;;;;;7.23;6.27;;;10.50;99.90;;;;;;2065823;28;20991;-82
2023/09/06 03:39:29;;;;;;;7.30;6.60;;;10.60;99.90;;;;;;2055407;28;20258;-83
2023/09/06 03:40:37;;;;;;;8.13;6.30;;;10.60;99.90;;;;;;2052778;28;20226;-83
2023/09/06 03:41:42;;;;;;;8.48;6.90;;;10.60;99.90;;;;;;2064120;28;20223;-82
2023/09/06 03:42:43;;;;;;;7.55;6.25;;;10.60;99.90;;;;;;2056774;28;20218;-83
2023/09/06 03:43:45;;;;;;;7.93;6.40;;;10.60;99.90;;;;;;2055888;28;20214;-82
2023/09/06 03:44:48;;;;;;;8.70;6.75;;;10.60;99.90;;;;;;2062440;28;20244;-82
2023/09/06 03:45:55;;;;;;;7.15;6.43;;;10.60;99.90;;;;;;2070624;28;20220;-82
2023/09/06 03:46:56;;;;;;;7.18;6.20;;;10.60;99.90;;;;;;2074997;28;20217;-81
2023/09/06 03:47:57;;;;;;;7.25;6.20;;;10.60;99.90;;;;;;2075383;28;20253;-82
2023/09/06 03:48:58;;;;;;;7.27;6.57;;;10.60;99.90;;;;;;2066478;28;20627;-81
2023/09/06 03:49:59;;;;;;;7.43;6.50;;;10.50;99.90;;;;;;2077138;28;20733;-81
2023/09/06 03:51:00;;;;;;;7.20;6.50;;;10.60;99.90;;;;;;2083269;28;20235;-81
2023/09/06 03:52:04;;;;;;;7.67;6.40;;;10.50;99.90;;;;;;2082160;28;20239;-82
2023/09/06 03:53:05;;;;;;;7.50;6.70;;;10.50;99.90;;;;;;2068281;28;20228;-81
2023/09/06 03:54:06;;;;;;;7.13;6.43;;;10.50;99.90;;;;;;2054360;28;20724;-82
2023/09/06 03:55:09;;;;;;;7.67;6.60;;;10.60;99.90;;;;;;2068889;28;20205;-82
2023/09/06 03:56:12;;;;;;;8.30;6.47;;;10.50;99.90;;;;;;2066587;28;20206;-81
2023/09/06 03:57:13;;;;;;;6.65;5.93;;;10.60;99.90;;;;;;2061586;28;20222;-81
2023/09/06 03:58:13;;;;;;;7.00;6.30;;;10.60;99.90;;;;;;2065589;28;20196;-82
2023/09/06 03:59:15;;;;;;;7.70;6.90;;;10.60;99.90;;;;;;2069023;28;20191;-82
2023/09/06 04:00:26;;;;;;;7.55;6.75;;;10.60;99.90;;;;;;2073185;28;20257;-82
2023/09/06 04:01:27;;;;;;;8.23;5.93;;;10.60;99.90;;;;;;2068148;28;20309;-82
2023/09/06 04:02:28;;;;;;;7.60;6.67;;;10.60;99.90;;;;;;2066092;28;20243;-82
2023/09/06 04:03:30;;;;;;;7.47;6.67;;;10.60;99.90;;;;;;2064832;28;20672;-83
2023/09/06 04:04:30;;;;;;;7.97;6.50;;;10.60;99.90;;;;;;2064841;28;20233;-82
2023/09/06 04:05:32;;;;;;;9.63;7.13;;;10.60;99.90;;;;;;2062808;28;20871;-82
2023/09/06 04:06:34;;;;;;;8.10;6.95;;;10.60;99.90;;;;;;2069263;28;20220;-83
2023/09/06 04:07:36;;;;;;;7.78;6.35;;;10.50;99.90;;;;;;2061901;28;20212;-82
2023/09/06 04:08:38;;;;;;;7.22;6.35;;;10.50;99.90;;;;;;2053545;28;20237;-83
2023/09/06 04:09:39;;;;;;;7.60;6.80;;;10.50;99.90;;;;;;2064046;28;20223;-82
2023/09/06 04:10:43;;;;;;;6.53;5.93;;;10.50;99.90;;;;;;2063433;28;20222;-82
2023/09/06 04:11:46;;;;;;;7.40;6.13;;;10.40;99.90;;;;;;2064568;28;20985;-83
2023/09/06 04:12:50;;;;;;;8.80;6.85;;;10.40;99.90;;;;;;2056431;28;20233;-82
2023/09/06 04:13:51;;;;;;;8.10;6.85;;;10.30;99.90;;;;;;2056167;28;20222;-82
2023/09/06 04:14:52;;;;;;;8.80;6.77;;;10.40;99.90;;;;;;2054093;28;21375;-82
2023/09/06 04:15:52;;;;;;;7.87;7.07;;;10.40;99.90;;;;;;2062542;28;20229;-81
2023/09/06 04:16:53;;;;;;;7.13;6.43;;;10.40;99.90;;;;;;2054939;28;20604;-81
2023/09/06 04:17:59;;;;;;;8.30;6.87;;;10.40;99.90;;;;;;2061542;28;20247;-81
2023/09/06 04:19:01;;;;;;;10.38;7.30;;;10.50;99.90;;;;;;2068980;28;20235;-81
2023/09/06 04:20:17;;;;;;;8.68;7.63;;;10.50;99.90;;;;;;2060448;28;20273;-82
2023/09/06 04:21:20;;;;;;;9.13;7.50;;;10.50;99.90;;;;;;2058412;28;20731;-81
2023/09/06 04:22:20;;;;;;;8.82;7.10;;;10.50;99.90;;;;;;2057812;28;20197;-82
2023/09/06 04:23:21;;;;;;;7.73;6.80;;;10.50;99.90;;;;;;2055099;28;20264;-81
2023/09/06 04:24:22;;;;;;;9.10;7.50;;;10.50;99.90;;;;;;2053848;28;21560;-83
2023/09/06 04:25:23;;;;;;;9.47;7.00;;;10.50;99.90;;;;;;2053558;28;20239;-81
2023/09/06 04:26:25;;;;;;;7.43;6.63;;;10.50;99.90;;;;;;2059964;28;20223;-81
2023/09/06 04:27:26;;;;;;;8.65;7.20;;;10.50;99.90;;;;;;2063950;28;20259;-82
2023/09/06 04:28:26;;;;;;;8.82;7.32;;;10.50;99.90;;;;;;2063495;28;20294;-82
2023/09/06 04:29:27;;;;;;;8.00;7.20;;;10.50;99.90;;;;;;2060335;28;20260;-81
2023/09/06 04:30:29;;;;;;;8.87;6.90;;;10.40;99.90;;;;;;2060716;28;20794;-81
2023/09/06 04:31:30;;;;;;;7.82;7.03;;;10.50;99.90;;;;;;2053045;28;20710;-82
2023/09/06 04:32:30;;;;;;;7.63;6.43;;;10.50;99.90;;;;;;2052773;28;20232;-81
2023/09/06 04:33:31;;;;;;;8.03;6.33;;;10.50;99.90;;;;;;2056147;28;20226;-82
2023/09/06 04:34:32;;;;;;;8.03;6.27;;;10.50;99.90;;;;;;2058764;28;20222;-84
2023/09/06 04:35:37;;;;;;;6.93;5.93;;;10.50;99.90;;;;;;2062982;28;20248;-82
2023/09/06 04:36:38;;;;;;;7.45;6.35;;;10.40;99.90;;;;;;2068420;28;20231;-82
2023/09/06 04:37:39;;;;;;;7.20;6.10;;;10.40;99.90;;;;;;2068184;28;20299;-82
2023/09/06 04:38:40;;;;;;;8.13;7.30;;;10.50;99.90;;;;;;2052750;28;20217;-83
2023/09/06 04:39:43;;;;;;;7.60;6.80;;;10.40;99.90;;;;;;2061428;28;20736;-82
2023/09/06 04:40:45;;;;;;;7.53;6.72;;;10.40;99.90;;;;;;2071994;28;20232;-82
2023/09/06 04:41:46;;;;;;;7.95;6.72;;;10.30;99.90;;;;;;2065598;28;20248;-83
2023/09/06 04:42:46;;;;;;;7.37;6.57;;;10.20;99.90;;;;;;2055175;28;20221;-83
2023/09/06 04:43:47;;;;;;;9.17;7.07;;;10.20;99.90;;;;;;2064412;28;20228;-83
2023/09/06 04:44:48;;;;;;;8.53;6.77;;;10.20;99.90;;;;;;2061814;28;20235;-82
2023/09/06 04:45:50;;;;;;;9.50;7.47;;;10.20;99.90;;;;;;2062910;28;20226;-82
2023/09/06 04:46:50;;;;;;;8.48;7.10;;;10.20;99.90;;;;;;2054494;28;20226;-83
2023/09/06 04:47:51;;;;;;;8.57;7.03;;;10.20;99.90;;;;;;2049850;28;20280;-82
2023/09/06 04:48:52;;;;;;;8.23;6.63;;;10.20;99.90;;;;;;2054682;28;20230;-82
2023/09/06 04:49:52;;;;;;;7.37;6.50;;;10.30;99.90;;;;;;2061683;28;20311;-81
2023/09/06 04:50:56;;;;;;;8.50;6.53;;;10.30;99.90;;;;;;2059131;28;20241;-81
2023/09/06 04:51:57;;;;;;;7.13;6.00;;;10.40;99.90;;;;;;2065470;28;20266;-82
2023/09/06 04:52:57;;;;;;;6.93;6.23;;;10.30;99.90;;;;;;2077088;28;20235;-81
2023/09/06 04:53:59;;;;;;;7.10;6.40;;;10.40;99.90;;;;;;2067421;28;20270;-82
2023/09/06 04:55:01;;;;;;;6.63;5.80;;;10.40;99.90;;;;;;2051993;28;20332;-82
2023/09/06 04:56:04;;;;;;;7.63;6.43;;;10.40;99.90;;;;;;2054327;28;20322;-82
2023/09/06 04:57:04;;;;;;;7.30;6.35;;;10.40;99.90;;;;;;2046926;28;20235;-82
2023/09/06 04:58:07;;;;;;;8.23;6.70;;;10.40;99.90;;;;;;2054093;28;20198;-81
2023/09/06 04:59:08;;;;;;;7.20;6.50;;;10.20;99.90;;;;;;2058119;28;20191;-81
2023/09/06 05:00:18;;;;;;;7.00;6.33;;;10.20;99.90;;;;;;2047065;28;20210;-82
2023/09/06 05:01:18;;;;;;;10.95;6.38;;;10.20;99.90;;;;;;2059375;28;20228;-82
2023/09/06 05:02:19;;;;;;;8.00;7.20;;;10.10;99.90;;;;;;2070881;28;20666;-83
2023/09/06 05:03:21;;;;;;;8.03;7.00;;;10.10;99.90;;;;;;2061863;28;20203;-81
2023/09/06 05:04:23;;;;;;;7.20;6.50;;;10.10;99.90;;;;;;2060249;28;20241;-82
2023/09/06 05:05:24;;;;;;;9.13;6.88;;;10.10;99.90;;;;;;2062356;28;20226;-83
2023/09/06 05:06:25;;;;;;;7.35;6.50;;;10.10;99.90;;;;;;2055009;28;20233;-82
2023/09/06 05:07:25;;;;;;;7.73;6.80;;;10.20;99.90;;;;;;2055212;28;20233;-82
2023/09/06 05:08:26;;;;;;;6.90;6.20;;;10.20;99.90;;;;;;2054599;28;20675;-82
2023/09/06 05:09:27;;;;;;;6.83;6.13;;;10.20;99.90;;;;;;2053508;28;20234;-82
2023/09/06 05:10:27;;;;;;;8.60;7.47;;;10.10;99.90;;;;;;2056550;28;20237;-82
2023/09/06 05:11:28;;;;;;;7.73;6.60;;;10.10;99.90;;;;;;2056952;28;20238;-82
2023/09/06 05:12:29;;;;;;;8.53;6.37;;;10.10;99.90;;;;;;2062559;28;20229;-81
2023/09/06 05:13:29;;;;;;;6.97;6.27;;;10.10;99.90;;;;;;2066531;28;20229;-82
2023/09/06 05:14:30;;;;;;;6.60;5.90;;;10.30;99.90;;;;;;2062049;28;20229;-82
2023/09/06 05:15:31;;;;;;;7.70;5.97;;;10.20;99.90;;;;;;2047560;28;20234;-83
2023/09/06 05:16:31;;;;;;;9.13;6.37;;;10.30;99.90;;;;;;2046858;29;20237;-82
2023/09/06 05:17:32;;;;;;;8.10;6.23;;;10.40;99.90;;;;;;2054169;28;20230;-82
2023/09/06 05:18:33;;;;;;;8.00;6.67;;;10.40;99.90;;;;;;2054256;28;20657;-83
2023/09/06 05:19:34;;;;;;;6.97;6.27;;;10.40;99.90;;;;;;2047178;29;20277;-83
2023/09/06 05:20:37;;;;;;;6.60;5.90;;;10.50;99.90;;;;;;2049001;28;20258;-83
2023/09/06 05:21:38;;;;;;;7.05;6.07;;;10.50;99.90;;;;;;2058736;28;20228;-83
2023/09/06 05:22:39;;;;;;;6.40;5.73;;;10.50;99.90;;;;;;2046102;29;20219;-83
2023/09/06 05:23:39;;;;;;;6.57;5.17;;;10.50;99.90;;;;;;2054269;28;20221;-83
2023/09/06 05:24:40;;;;;;;6.67;6.07;;;10.50;99.90;;;;;;2065693;28;20704;-83